createdAt,value
2017-06-02T00:00:06.283Z,0
2017-06-02T00:01:16.658Z,0
2017-06-02T00:02:26.706Z,0
2017-06-02T00:03:36.742Z,0
2017-06-02T00:04:47.085Z,0
2017-06-02T00:05:57.422Z,0
2017-06-02T00:07:07.813Z,0
2017-06-02T00:08:18.377Z,0
2017-06-02T00:09:28.715Z,0
2017-06-02T00:10:39.068Z,0
2017-06-02T00:11:48.806Z,0
2017-06-02T00:12:59.144Z,0
2017-06-02T00:14:09.514Z,0
2017-06-02T00:15:19.852Z,0
2017-06-02T00:16:29.888Z,0
2017-06-02T00:17:39.923Z,0
2017-06-02T00:18:50.296Z,0
2017-06-02T00:20:00.655Z,0
2017-06-02T00:21:11.008Z,0
2017-06-02T00:22:21.372Z,0
2017-06-02T00:23:31.728Z,0
2017-06-02T00:24:41.813Z,0
2017-06-02T00:25:52.166Z,0
2017-06-02T00:27:02.209Z,0
2017-06-02T00:28:12.242Z,0
2017-06-02T00:29:22.272Z,0
2017-06-02T00:30:32.063Z,0
2017-06-02T00:31:42.410Z,0
2017-06-02T00:32:52.456Z,0
2017-06-02T00:34:02.810Z,0
2017-06-02T00:35:12.859Z,0
2017-06-02T00:36:22.948Z,0
2017-06-02T00:37:33.318Z,0
2017-06-02T00:38:43.675Z,0
2017-06-02T00:39:54.007Z,0
2017-06-02T00:41:04.358Z,0
2017-06-02T00:42:14.712Z,0
2017-06-02T00:43:25.052Z,0
2017-06-02T00:44:35.404Z,0
2017-06-02T00:45:45.741Z,0
2017-06-02T00:46:56.104Z,0
2017-06-02T00:48:06.506Z,0
2017-06-02T00:49:16.851Z,0
2017-06-02T00:50:26.930Z,0
2017-06-02T00:51:37.296Z,0
2017-06-02T00:52:47.644Z,0
2017-06-02T00:53:58.046Z,0
2017-06-02T00:55:08.411Z,0
2017-06-02T00:56:18.749Z,0
2017-06-02T00:57:29.095Z,0
2017-06-02T00:58:39.441Z,0
2017-06-02T00:59:49.787Z,0
2017-06-02T01:00:59.822Z,0
2017-06-02T01:02:09.860Z,0
2017-06-02T01:03:19.903Z,0
2017-06-02T01:04:30.273Z,0
2017-06-02T01:05:40.684Z,0
2017-06-02T01:06:51.034Z,0
2017-06-02T01:08:01.386Z,0
2017-06-02T01:09:11.751Z,0
2017-06-02T01:10:22.111Z,0
2017-06-02T01:11:32.485Z,0
2017-06-02T01:12:43.086Z,0
2017-06-02T01:13:53.434Z,0
2017-06-02T01:15:03.461Z,0
2017-06-02T01:16:13.816Z,0
2017-06-02T01:17:24.213Z,0
2017-06-02T01:18:34.250Z,0
2017-06-02T01:19:44.589Z,0
2017-06-02T01:20:54.638Z,0
2017-06-02T01:22:04.991Z,0
2017-06-02T01:23:15.413Z,0
2017-06-02T01:24:25.766Z,0
2017-06-02T01:25:36.112Z,0
2017-06-02T01:26:46.503Z,0
2017-06-02T01:27:56.850Z,0
2017-06-02T01:29:07.255Z,0
2017-06-02T01:30:17.602Z,0
2017-06-02T01:31:27.951Z,0
2017-06-02T01:32:38.317Z,0
2017-06-02T01:33:48.681Z,0
2017-06-02T01:34:58.715Z,0
2017-06-02T01:36:09.069Z,0
2017-06-02T01:37:18.784Z,0
2017-06-02T01:38:29.128Z,0
2017-06-02T01:39:38.858Z,0
2017-06-02T01:40:49.215Z,0
2017-06-02T01:41:59.571Z,0
2017-06-02T01:43:09.914Z,0
2017-06-02T01:44:20.289Z,0
2017-06-02T01:45:30.640Z,0
2017-06-02T01:46:40.108Z,0
2017-06-02T01:47:50.161Z,0
2017-06-02T01:49:00.507Z,0
2017-06-02T01:50:10.857Z,0
2017-06-02T01:51:21.222Z,0
2017-06-02T01:52:31.630Z,0
2017-06-02T01:53:42.024Z,0
2017-06-02T01:54:52.375Z,0
2017-06-02T01:56:02.413Z,0
2017-06-02T01:57:12.756Z,0
2017-06-02T01:58:23.160Z,0
2017-06-02T01:59:33.502Z,0
2017-06-02T02:00:43.542Z,0
2017-06-02T02:01:53.893Z,0
2017-06-02T02:03:04.235Z,0
2017-06-02T02:04:14.009Z,0
2017-06-02T02:05:24.365Z,0
2017-06-02T02:06:34.436Z,0
2017-06-02T02:07:44.789Z,0
2017-06-02T02:08:54.813Z,0
2017-06-02T02:10:04.903Z,0
2017-06-02T02:11:15.269Z,0
2017-06-02T02:12:25.310Z,0
2017-06-02T02:13:35.370Z,0
2017-06-02T02:14:45.746Z,0
2017-06-02T02:15:56.093Z,0
2017-06-02T02:17:06.125Z,0
2017-06-02T02:18:16.476Z,0
2017-06-02T02:19:25.894Z,0
2017-06-02T02:20:36.263Z,0
2017-06-02T02:21:46.677Z,0
2017-06-02T02:22:57.017Z,0
2017-06-02T02:24:07.370Z,4
2017-06-02T02:25:17.422Z,4
2017-06-02T02:26:27.463Z,4
2017-06-02T02:27:37.860Z,0
2017-06-02T02:28:48.226Z,0
2017-06-02T02:29:58.566Z,4
2017-06-02T02:31:08.291Z,0
2017-06-02T02:32:18.342Z,4
2017-06-02T02:33:28.521Z,4
2017-06-02T02:34:38.883Z,4
2017-06-02T02:35:49.223Z,8
2017-06-02T02:36:59.555Z,8
2017-06-02T02:38:09.590Z,12
2017-06-02T02:39:20.132Z,12
2017-06-02T02:40:30.474Z,16
2017-06-02T02:41:40.832Z,16
2017-06-02T02:42:50.866Z,20
2017-06-02T02:44:01.205Z,24
2017-06-02T02:45:11.617Z,28
2017-06-02T02:46:21.975Z,32
2017-06-02T02:47:32.337Z,40
2017-06-02T02:48:42.372Z,40
2017-06-02T02:49:52.418Z,48
2017-06-02T02:51:02.766Z,52
2017-06-02T02:52:13.103Z,56
2017-06-02T02:53:23.448Z,64
2017-06-02T02:54:33.191Z,72
2017-06-02T02:55:43.538Z,80
2017-06-02T02:56:53.924Z,88
2017-06-02T02:58:03.956Z,96
2017-06-02T02:59:14.295Z,108
2017-06-02T03:00:24.660Z,120
2017-06-02T03:01:35.031Z,132
2017-06-02T03:33:20.202Z,980
2017-06-02T03:34:30.546Z,1032
2017-06-02T03:35:40.910Z,1064
2017-06-02T03:36:50.935Z,1096
2017-06-02T03:38:01.491Z,1136
2017-06-02T03:39:11.569Z,1176
2017-06-02T03:40:21.924Z,1216
2017-06-02T03:41:32.263Z,1260
2017-06-02T03:42:42.619Z,1304
2017-06-02T03:43:52.966Z,1340
2017-06-02T03:45:03.360Z,1376
2017-06-02T03:46:13.722Z,1412
2017-06-02T03:47:24.077Z,1448
2017-06-02T03:48:34.431Z,1496
2017-06-02T03:49:44.775Z,1556
2017-06-02T03:50:55.187Z,1628
2017-06-02T03:52:05.537Z,1704
2017-06-02T03:53:15.886Z,1784
2017-06-02T03:54:26.238Z,1832
2017-06-02T03:55:36.586Z,1868
2017-06-02T03:56:46.666Z,1904
2017-06-02T03:57:57.086Z,1952
2017-06-02T03:59:07.138Z,1988
2017-06-02T04:00:17.472Z,2016
2017-06-02T04:01:27.505Z,2044
2017-06-02T04:02:37.588Z,2064
2017-06-02T04:03:47.950Z,2168
2017-06-02T04:04:57.996Z,2276
2017-06-02T04:06:08.354Z,2364
2017-06-02T04:07:18.967Z,2460
2017-06-02T04:08:28.737Z,2540
2017-06-02T04:09:39.146Z,2588
2017-06-02T04:10:49.545Z,2628
2017-06-02T04:11:59.912Z,2728
2017-06-02T04:13:10.279Z,2808
2017-06-02T04:14:20.674Z,2940
2017-06-02T04:15:31.043Z,3064
2017-06-02T04:16:41.387Z,3140
2017-06-02T04:17:51.424Z,3724
2017-06-02T04:19:01.854Z,6496
2017-06-02T04:20:12.203Z,7968
2017-06-02T04:21:22.557Z,8148
2017-06-02T04:22:32.584Z,8580
2017-06-02T04:23:42.616Z,8664
2017-06-02T04:24:52.651Z,8440
2017-06-02T04:26:02.749Z,8512
2017-06-02T04:27:13.092Z,9508
2017-06-02T04:28:23.442Z,9668
2017-06-02T04:29:33.482Z,10132
2017-06-02T04:30:43.206Z,10636
2017-06-02T04:31:53.248Z,10680
2017-06-02T04:33:03.601Z,10856
2017-06-02T04:34:13.631Z,11228
2017-06-02T04:35:23.050Z,11440
2017-06-02T04:36:33.400Z,11808
2017-06-02T04:37:43.437Z,11828
2017-06-02T04:38:53.783Z,11684
2017-06-02T04:40:04.140Z,11872
2017-06-02T04:41:14.187Z,11872
2017-06-02T04:42:24.538Z,11680
2017-06-02T04:43:34.992Z,11668
2017-06-02T04:44:45.348Z,11676
2017-06-02T04:45:55.703Z,11540
2017-06-02T04:47:05.741Z,11608
2017-06-02T04:48:16.090Z,11700
2017-06-02T04:49:26.193Z,11596
2017-06-02T04:50:36.538Z,11272
2017-06-02T04:51:46.582Z,11228
2017-06-02T04:52:56.920Z,11272
2017-06-02T04:54:06.648Z,11432
2017-06-02T04:55:16.737Z,11444
2017-06-02T04:56:26.775Z,11156
2017-06-02T04:57:36.818Z,11104
2017-06-02T04:58:46.847Z,11076
2017-06-02T04:59:56.890Z,11280
2017-06-02T05:01:07.293Z,11424
2017-06-02T05:02:17.334Z,11444
2017-06-02T05:03:27.678Z,11608
2017-06-02T05:04:37.726Z,11212
2017-06-02T05:05:47.768Z,11044
2017-06-02T05:06:58.137Z,10896
2017-06-02T05:08:08.177Z,10784
2017-06-02T05:09:18.540Z,11332
2017-06-02T05:10:28.580Z,11868
2017-06-02T05:11:38.956Z,11992
2017-06-02T05:12:48.750Z,12028
2017-06-02T05:13:59.118Z,12064
2017-06-02T05:15:09.158Z,12112
2017-06-02T05:16:19.509Z,12144
2017-06-02T05:17:29.551Z,11976
2017-06-02T05:18:39.915Z,11908
2017-06-02T05:19:49.951Z,12232
2017-06-02T05:21:00.313Z,12400
2017-06-02T05:22:10.659Z,12304
2017-06-02T05:23:21.026Z,11928
2017-06-02T05:24:31.113Z,12128
2017-06-02T05:25:40.840Z,12292
2017-06-02T05:26:50.876Z,12204
2017-06-02T05:28:00.917Z,12336
2017-06-02T05:29:11.324Z,12196
2017-06-02T05:30:21.676Z,12248
2017-06-02T05:31:31.740Z,12292
2017-06-02T05:32:42.096Z,12168
2017-06-02T05:33:52.150Z,12204
2017-06-02T05:35:02.521Z,12436
2017-06-02T05:36:12.915Z,12448
2017-06-02T05:37:22.957Z,12020
2017-06-02T05:38:33.537Z,11808
2017-06-02T05:39:43.585Z,11984
2017-06-02T05:40:53.948Z,11932
2017-06-02T05:42:03.728Z,11876
2017-06-02T05:43:14.076Z,11168
2017-06-02T05:44:24.434Z,11168
2017-06-02T05:45:34.495Z,10616
2017-06-02T05:46:44.855Z,10352
2017-06-02T05:47:55.218Z,11900
2017-06-02T05:49:05.257Z,12628
2017-06-02T05:50:15.607Z,12724
2017-06-02T05:51:25.979Z,12728
2017-06-02T05:52:36.022Z,12756
2017-06-02T05:53:46.382Z,12960
2017-06-02T05:54:56.407Z,13160
2017-06-02T05:56:06.445Z,13160
2017-06-02T05:57:16.783Z,12708
2017-06-02T05:58:27.132Z,12596
2017-06-02T05:59:37.484Z,12088
2017-06-02T06:00:47.523Z,11360
2017-06-02T06:01:57.590Z,11464
2017-06-02T06:03:07.952Z,11980
2017-06-02T06:04:18.297Z,12224
2017-06-02T06:05:28.973Z,12280
2017-06-02T06:06:39.027Z,11884
2017-06-02T06:07:49.068Z,11984
2017-06-02T06:08:59.404Z,11128
2017-06-02T06:10:09.452Z,10844
2017-06-02T06:11:19.835Z,9700
2017-06-02T06:12:29.567Z,8484
2017-06-02T06:13:39.910Z,7648
2017-06-02T06:14:50.254Z,7572
2017-06-02T06:16:00.617Z,7556
2017-06-02T06:17:10.726Z,9420
2017-06-02T06:18:21.079Z,9992
2017-06-02T06:19:30.803Z,11024
2017-06-02T06:20:41.164Z,10744
2017-06-02T06:21:51.519Z,9456
2017-06-02T06:23:01.906Z,8796
2017-06-02T06:24:12.279Z,10776
2017-06-02T06:25:22.335Z,10128
2017-06-02T06:26:32.387Z,11656
2017-06-02T06:27:42.748Z,9440
2017-06-02T06:28:52.802Z,8544
2017-06-02T06:30:03.162Z,7996
2017-06-02T06:31:13.192Z,7956
2017-06-02T06:32:23.241Z,7900
2017-06-02T06:33:33.258Z,7864
2017-06-02T06:34:43.319Z,7868
2017-06-02T06:35:53.682Z,7764
2017-06-02T06:37:04.033Z,7636
2017-06-02T06:38:14.089Z,7580
2017-06-02T06:39:24.443Z,7564
2017-06-02T06:40:34.792Z,7572
2017-06-02T06:41:45.159Z,7612
2017-06-02T06:42:55.516Z,7648
2017-06-02T06:44:05.566Z,7672
2017-06-02T06:45:15.930Z,7620
2017-06-02T06:46:25.715Z,7548
2017-06-02T06:47:35.778Z,7484
2017-06-02T06:48:45.842Z,7408
2017-06-02T06:49:55.892Z,7324
2017-06-02T06:51:05.942Z,7236
2017-06-02T06:52:15.714Z,7112
2017-06-02T06:53:25.740Z,6860
2017-06-02T06:54:36.099Z,6700
2017-06-02T06:55:45.826Z,7400
2017-06-02T06:56:55.864Z,6412
2017-06-02T06:58:05.896Z,6280
2017-06-02T06:59:16.260Z,6736
2017-06-02T07:00:26.610Z,6976
2017-06-02T07:01:36.970Z,7976
2017-06-02T07:02:47.311Z,8312
2017-06-02T07:03:56.782Z,6384
2017-06-02T07:05:07.138Z,7664
2017-06-02T07:06:17.506Z,8716
2017-06-02T07:07:27.878Z,8468
2017-06-02T07:08:38.242Z,7924
2017-06-02T07:09:48.590Z,7548
2017-06-02T07:10:58.638Z,7444
2017-06-02T07:12:08.677Z,7316
2017-06-02T07:13:19.029Z,7272
2017-06-02T07:14:29.082Z,7192
2017-06-02T07:15:39.486Z,7192
2017-06-02T07:16:49.523Z,7104
2017-06-02T07:17:59.583Z,7088
2017-06-02T07:19:09.930Z,7068
2017-06-02T07:20:20.286Z,6976
2017-06-02T07:21:30.397Z,6952
2017-06-02T07:22:40.426Z,6936
2017-06-02T07:23:50.474Z,6940
2017-06-02T07:25:00.841Z,6956
2017-06-02T07:26:11.203Z,6948
2017-06-02T07:27:21.608Z,6956
2017-06-02T07:28:30.705Z,6940
2017-06-02T07:29:40.748Z,6916
2017-06-02T07:30:50.789Z,6900
2017-06-02T07:32:00.836Z,6884
2017-06-02T07:33:11.250Z,6864
2017-06-02T07:34:21.606Z,6832
2017-06-02T07:35:31.649Z,6832
2017-06-02T07:36:42.003Z,6876
2017-06-02T07:37:52.350Z,6924
2017-06-02T07:39:02.087Z,6956
2017-06-02T07:40:12.457Z,6908
2017-06-02T07:41:22.807Z,6936
2017-06-02T07:42:33.146Z,6920
2017-06-02T07:43:43.198Z,6904
2017-06-02T07:44:53.289Z,6868
2017-06-02T07:46:03.334Z,6832
2017-06-02T07:47:13.691Z,6884
2017-06-02T07:48:24.038Z,6940
2017-06-02T07:49:34.384Z,6896
2017-06-02T07:50:44.793Z,6904
2017-06-02T07:51:54.824Z,6924
2017-06-02T07:53:04.887Z,6964
2017-06-02T07:54:14.935Z,7044
2017-06-02T07:55:24.977Z,7052
2017-06-02T07:56:34.411Z,7096
2017-06-02T07:57:44.771Z,7092
2017-06-02T07:58:54.826Z,7080
2017-06-02T08:00:04.576Z,7148
2017-06-02T08:01:14.961Z,7224
2017-06-02T08:02:25.364Z,7288
2017-06-02T08:03:35.704Z,7328
2017-06-02T08:04:45.746Z,7308
2017-06-02T08:05:55.794Z,7316
2017-06-02T08:07:06.166Z,7328
2017-06-02T08:08:15.922Z,7344
2017-06-02T08:09:26.277Z,7324
2017-06-02T08:10:36.634Z,7264
2017-06-02T08:11:46.991Z,7384
2017-06-02T08:12:57.354Z,7520
2017-06-02T08:14:07.764Z,7576
2017-06-02T08:15:18.117Z,7612
2017-06-02T08:16:28.174Z,7688
2017-06-02T08:17:38.511Z,7740
2017-06-02T08:18:48.632Z,7764
2017-06-02T08:19:58.969Z,7888
2017-06-02T08:21:09.337Z,7956
2017-06-02T08:22:19.381Z,8076
2017-06-02T08:23:29.121Z,8248
2017-06-02T08:24:39.491Z,8444
2017-06-02T08:25:49.915Z,8524
2017-06-02T08:26:59.357Z,8428
2017-06-02T08:28:09.705Z,8416
2017-06-02T08:29:19.748Z,8532
2017-06-02T08:30:30.113Z,8676
2017-06-02T08:31:39.897Z,8744
2017-06-02T08:32:50.239Z,8708
2017-06-02T08:34:00.282Z,8628
2017-06-02T08:35:10.315Z,8632
2017-06-02T08:36:20.674Z,8504
2017-06-02T08:37:31.093Z,8344
2017-06-02T08:38:41.528Z,8324
2017-06-02T08:39:51.557Z,8332
2017-06-02T08:41:01.928Z,8228
2017-06-02T08:42:11.991Z,8512
2017-06-02T08:43:22.089Z,8600
2017-06-02T08:44:32.450Z,8692
2017-06-02T08:45:42.792Z,8600
2017-06-02T08:46:52.838Z,8584
2017-06-02T08:48:03.200Z,7780
2017-06-02T08:49:13.338Z,7956
2017-06-02T08:50:23.393Z,7928
2017-06-02T08:51:33.744Z,8196
2017-06-02T08:52:43.785Z,7868
2017-06-02T08:53:54.145Z,8108
2017-06-02T08:55:04.507Z,8244
2017-06-02T08:56:14.231Z,8304
2017-06-02T08:57:24.578Z,8264
2017-06-02T08:58:34.948Z,8220
2017-06-02T08:59:45.306Z,8164
2017-06-02T09:00:55.716Z,8084
2017-06-02T09:02:06.099Z,8020
2017-06-02T09:03:16.143Z,7912
2017-06-02T09:04:26.535Z,7796
2017-06-02T09:05:36.586Z,7808
2017-06-02T09:06:46.943Z,7912
2017-06-02T09:07:57.307Z,8068
2017-06-02T09:09:07.651Z,8184
2017-06-02T09:10:18.055Z,8240
2017-06-02T09:11:28.405Z,8264
2017-06-02T09:12:38.827Z,8164
2017-06-02T09:13:49.208Z,7996
2017-06-02T09:14:59.572Z,7844
2017-06-02T09:16:09.978Z,7772
2017-06-02T09:17:20.330Z,7692
2017-06-02T09:18:30.684Z,7616
2017-06-02T09:19:41.033Z,7572
2017-06-02T09:20:51.077Z,7552
2017-06-02T09:22:01.168Z,7620
2017-06-02T09:23:11.524Z,7660
2017-06-02T09:24:21.890Z,7636
2017-06-02T09:25:31.942Z,7616
2017-06-02T09:26:42.299Z,7608
2017-06-02T09:27:52.690Z,7616
2017-06-02T09:29:03.045Z,7612
2017-06-02T09:30:13.409Z,7612
2017-06-02T09:31:23.759Z,7632
2017-06-02T09:32:33.791Z,7612
2017-06-02T09:33:44.224Z,7588
2017-06-02T09:34:53.953Z,7560
2017-06-02T09:36:04.323Z,7440
2017-06-02T09:37:14.358Z,7508
2017-06-02T09:38:24.401Z,7412
2017-06-02T09:39:34.808Z,7340
2017-06-02T09:40:44.860Z,7300
2017-06-02T09:41:55.229Z,7000
2017-06-02T09:43:05.599Z,7096
2017-06-02T09:44:15.972Z,7212
2017-06-02T09:45:26.383Z,7452
2017-06-02T09:46:36.746Z,7512
2017-06-02T09:47:47.120Z,7504
2017-06-02T09:48:57.482Z,7492
2017-06-02T09:50:08.076Z,7520
2017-06-02T09:51:18.481Z,7532
2017-06-02T09:52:28.840Z,7528
2017-06-02T09:53:39.200Z,7544
2017-06-02T09:54:49.567Z,7508
2017-06-02T09:55:59.609Z,7468
2017-06-02T09:57:09.700Z,7520
2017-06-02T09:58:20.054Z,7544
2017-06-02T09:59:30.428Z,7560
2017-06-02T10:00:40.470Z,7588
2017-06-02T10:01:50.532Z,7632
2017-06-02T10:03:00.639Z,7716
2017-06-02T10:04:10.991Z,7768
2017-06-02T10:05:21.036Z,7768
2017-06-02T10:06:31.408Z,7768
2017-06-02T10:07:41.763Z,7748
2017-06-02T10:08:51.815Z,7716
2017-06-02T10:10:02.190Z,7732
2017-06-02T10:11:12.755Z,7748
2017-06-02T10:12:22.785Z,7788
2017-06-02T10:13:33.157Z,7804
2017-06-02T10:14:43.266Z,7816
2017-06-02T10:15:53.684Z,7804
2017-06-02T10:17:04.047Z,7852
2017-06-02T10:18:14.404Z,7924
2017-06-02T10:19:24.794Z,7964
2017-06-02T10:20:34.909Z,7960
2017-06-02T10:21:45.267Z,7852
2017-06-02T10:22:55.624Z,7868
2017-06-02T10:24:05.671Z,7888
2017-06-02T10:25:16.057Z,7900
2017-06-02T10:26:26.151Z,7848
2017-06-02T10:27:36.512Z,7824
2017-06-02T10:28:46.879Z,7900
2017-06-02T10:29:57.232Z,7916
2017-06-02T10:31:07.590Z,7900
2017-06-02T10:32:17.682Z,7908
2017-06-02T10:33:28.038Z,7928
2017-06-02T10:34:38.087Z,7932
2017-06-02T10:35:48.459Z,7928
2017-06-02T10:36:58.509Z,7920
2017-06-02T10:38:08.886Z,7972
2017-06-02T10:39:19.240Z,8012
2017-06-02T10:40:29.278Z,8056
2017-06-02T10:41:39.330Z,8040
2017-06-02T10:42:49.688Z,8032
2017-06-02T10:43:59.784Z,7976
2017-06-02T10:45:09.522Z,7984
2017-06-02T10:46:19.886Z,8008
2017-06-02T10:47:30.307Z,8068
2017-06-02T10:48:40.663Z,8116
2017-06-02T10:49:51.078Z,8076
2017-06-02T10:51:01.129Z,8040
2017-06-02T10:52:10.876Z,8068
2017-06-02T10:53:21.289Z,8012
2017-06-02T10:54:31.364Z,7996
2017-06-02T10:55:41.818Z,8072
2017-06-02T10:56:52.230Z,8004
2017-06-02T10:58:02.285Z,8008
2017-06-02T10:59:12.885Z,8040
2017-06-02T11:00:22.660Z,8048
2017-06-02T11:01:33.078Z,7996
2017-06-02T11:02:43.674Z,8032
2017-06-02T11:03:53.110Z,7976
2017-06-02T11:05:03.469Z,7952
2017-06-02T11:06:13.505Z,8044
2017-06-02T11:07:23.588Z,8008
2017-06-02T11:08:33.658Z,7960
2017-06-02T11:09:44.036Z,8044
2017-06-02T11:10:54.094Z,8044
2017-06-02T11:12:04.160Z,8072
2017-06-02T11:13:14.232Z,8124
2017-06-02T11:14:24.605Z,8124
2017-06-02T11:15:34.965Z,8140
2017-06-02T11:16:45.339Z,8180
2017-06-02T11:17:55.372Z,8176
2017-06-02T11:19:05.792Z,8160
2017-06-02T11:20:16.175Z,8168
2017-06-02T11:21:26.574Z,8156
2017-06-02T11:22:36.700Z,8180
2017-06-02T11:23:47.057Z,8276
2017-06-02T11:24:57.462Z,8244
2017-06-02T11:26:07.499Z,8140
2017-06-02T11:27:17.544Z,8120
2017-06-02T11:28:27.623Z,8132
2017-06-02T11:29:37.996Z,8172
2017-06-02T11:30:48.274Z,8136
2017-06-02T11:31:58.645Z,8052
2017-06-02T11:33:08.701Z,8108
2017-06-02T11:34:18.751Z,8140
2017-06-02T11:35:28.798Z,8128
2017-06-02T11:36:39.169Z,8060
2017-06-02T11:37:48.959Z,8000
2017-06-02T11:38:59.440Z,7948
2017-06-02T11:40:09.812Z,7956
2017-06-02T11:41:19.947Z,7952
2017-06-02T11:42:30.480Z,7952
2017-06-02T11:43:40.647Z,7944
2017-06-02T11:44:50.787Z,7976
2017-06-02T11:46:01.192Z,7988
2017-06-02T11:47:11.559Z,7960
2017-06-02T11:48:21.916Z,7976
2017-06-02T11:49:32.282Z,7992
2017-06-02T11:50:42.706Z,7960
2017-06-02T11:51:53.130Z,7968
2017-06-02T11:53:03.531Z,8020
2017-06-02T11:54:13.631Z,7992
2017-06-02T11:55:23.992Z,7984
2017-06-02T11:56:34.047Z,7956
2017-06-02T11:57:44.107Z,8028
2017-06-02T11:58:54.477Z,7948
2017-06-02T12:00:04.526Z,7988
2017-06-02T12:01:14.605Z,8020
2017-06-02T12:02:24.694Z,8080
2017-06-02T12:03:34.764Z,8072
2017-06-02T12:04:44.875Z,8052
2017-06-02T12:05:55.374Z,8096
2017-06-02T12:07:05.417Z,8144
2017-06-02T12:08:15.433Z,8136
2017-06-02T12:09:25.789Z,8132
2017-06-02T12:10:36.162Z,8124
2017-06-02T12:11:46.584Z,8072
2017-06-02T12:12:56.321Z,8056
2017-06-02T12:14:06.366Z,8020
2017-06-02T12:15:16.421Z,7972
2017-06-02T12:16:26.475Z,7944
2017-06-02T12:17:36.573Z,8040
2017-06-02T12:18:46.625Z,7980
2017-06-02T12:19:56.993Z,7948
2017-06-02T12:21:07.347Z,7908
2017-06-02T12:22:17.391Z,7876
2017-06-02T12:23:27.492Z,7932
2017-06-02T12:24:37.539Z,7996
2017-06-02T12:25:47.605Z,7976
2017-06-02T12:26:57.346Z,7948
2017-06-02T12:28:07.712Z,7960
2017-06-02T12:29:18.088Z,7916
2017-06-02T12:30:28.453Z,7904
2017-06-02T12:31:38.493Z,7876
2017-06-02T12:32:48.871Z,7888
2017-06-02T12:33:59.234Z,7876
2017-06-02T12:35:09.650Z,7868
2017-06-02T12:36:20.030Z,7848
2017-06-02T12:37:30.421Z,7836
2017-06-02T12:38:40.148Z,7832
2017-06-02T12:39:50.697Z,7836
2017-06-02T12:41:00.788Z,7876
2017-06-02T12:42:11.151Z,7828
2017-06-02T12:43:21.201Z,7872
2017-06-02T12:44:31.555Z,7896
2017-06-02T12:45:41.919Z,7872
2017-06-02T12:46:52.274Z,7876
2017-06-02T12:48:02.653Z,7828
2017-06-02T12:49:13.011Z,7824
2017-06-02T12:50:23.378Z,7872
2017-06-02T12:51:33.740Z,7880
2017-06-02T12:52:44.143Z,7836
2017-06-02T12:53:54.198Z,7820
2017-06-02T12:55:04.259Z,7876
2017-06-02T12:56:14.322Z,7852
2017-06-02T12:57:24.367Z,7820
2017-06-02T12:58:34.177Z,7772
2017-06-02T12:59:44.573Z,7788
2017-06-02T13:00:54.956Z,7960
2017-06-02T13:02:05.316Z,7968
2017-06-02T13:03:15.682Z,8068
2017-06-02T13:04:25.770Z,8164
2017-06-02T13:05:35.824Z,8204
2017-06-02T13:06:45.862Z,8088
2017-06-02T13:07:56.208Z,7912
2017-06-02T13:09:06.242Z,7848
2017-06-02T13:10:16.653Z,7828
2017-06-02T13:11:27.007Z,7816
2017-06-02T13:12:37.381Z,7840
2017-06-02T13:13:47.438Z,7820
2017-06-02T13:14:57.784Z,7780
2017-06-02T13:16:08.207Z,7748
2017-06-02T13:17:18.281Z,7764
2017-06-02T13:18:28.642Z,7728
2017-06-02T13:19:38.381Z,7800
2017-06-02T13:20:48.416Z,7804
2017-06-02T13:21:58.508Z,7832
2017-06-02T13:23:08.551Z,7844
2017-06-02T13:24:18.269Z,7904
2017-06-02T13:25:28.635Z,7868
2017-06-02T13:26:38.987Z,7912
2017-06-02T13:27:49.393Z,7936
2017-06-02T13:28:59.746Z,8008
2017-06-02T13:30:10.120Z,7952
2017-06-02T13:31:20.469Z,7744
2017-06-02T13:32:30.519Z,8004
2017-06-02T13:33:40.928Z,8160
2017-06-02T13:34:51.310Z,8276
2017-06-02T13:36:01.366Z,8268
2017-06-02T13:37:11.729Z,8116
2017-06-02T13:38:22.088Z,8072
2017-06-02T13:39:32.451Z,8052
2017-06-02T13:40:42.799Z,8112
2017-06-02T13:41:53.161Z,8184
2017-06-02T13:43:03.522Z,8284
2017-06-02T13:44:13.580Z,8212
2017-06-02T13:45:24.018Z,8052
2017-06-02T13:46:34.085Z,8008
2017-06-02T13:47:44.478Z,6836
2017-06-02T13:48:54.896Z,4596
2017-06-02T13:50:04.990Z,4500
2017-06-02T13:51:15.163Z,4488
2017-06-02T13:52:25.651Z,4564
2017-06-02T13:53:36.110Z,4664
2017-06-02T13:54:46.770Z,4772
2017-06-02T13:55:57.163Z,5472
2017-06-02T13:57:07.222Z,7620
2017-06-02T13:58:17.593Z,7748
2017-06-02T13:59:27.967Z,7684
2017-06-02T14:00:38.007Z,7388
2017-06-02T14:01:48.069Z,6016
2017-06-02T14:02:58.132Z,4908
2017-06-02T14:04:08.504Z,7324
2017-06-02T14:05:18.882Z,7288
2017-06-02T14:06:29.270Z,7396
2017-06-02T14:07:39.336Z,7380
2017-06-02T14:08:49.397Z,4748
2017-06-02T14:09:59.775Z,4600
2017-06-02T14:11:10.156Z,4580
2017-06-02T14:12:20.532Z,4712
2017-06-02T14:13:30.899Z,7100
2017-06-02T14:14:41.342Z,7044
2017-06-02T14:15:51.723Z,7156
2017-06-02T14:17:02.110Z,7188
2017-06-02T14:18:12.478Z,7208
2017-06-02T14:19:22.882Z,6948
2017-06-02T14:20:32.999Z,7172
2017-06-02T14:21:43.383Z,7016
2017-06-02T14:22:53.747Z,6888
2017-06-02T14:24:03.856Z,6380
2017-06-02T14:25:13.934Z,4384
2017-06-02T14:26:23.728Z,4984
2017-06-02T14:27:33.484Z,6640
2017-06-02T14:28:43.859Z,6604
2017-06-02T14:29:54.244Z,4168
2017-06-02T14:31:04.325Z,4064
2017-06-02T14:32:14.746Z,4084
2017-06-02T14:33:25.116Z,4124
2017-06-02T14:34:35.494Z,4124
2017-06-02T14:35:45.864Z,4092
2017-06-02T14:36:56.240Z,4132
2017-06-02T14:38:06.671Z,4204
2017-06-02T14:39:17.039Z,4156
2017-06-02T14:40:27.099Z,6292
2017-06-02T14:41:37.489Z,5024
2017-06-02T14:42:47.564Z,5808
2017-06-02T14:43:57.932Z,5060
2017-06-02T14:45:07.991Z,4180
2017-06-02T14:46:18.350Z,4132
2017-06-02T14:47:28.702Z,4104
2017-06-02T14:48:39.076Z,4144
2017-06-02T14:49:48.890Z,5672
2017-06-02T14:50:58.623Z,4132
2017-06-02T14:52:08.686Z,4116
2017-06-02T14:53:19.078Z,4208
2017-06-02T14:54:29.452Z,4264
2017-06-02T14:55:40.128Z,4260
2017-06-02T14:56:49.884Z,4508
2017-06-02T14:58:00.260Z,4364
2017-06-02T14:59:10.547Z,5516
2017-06-02T15:00:20.919Z,6124
2017-06-02T15:01:31.346Z,6072
2017-06-02T15:02:41.736Z,6144
2017-06-02T15:03:52.125Z,6208
2017-06-02T15:05:02.742Z,6156
2017-06-02T15:06:12.808Z,6052
2017-06-02T15:07:22.924Z,5880
2017-06-02T15:08:32.689Z,4520
2017-06-02T15:09:43.052Z,5720
2017-06-02T15:10:53.110Z,5796
2017-06-02T15:12:03.481Z,5676
2017-06-02T15:13:13.583Z,5916
2017-06-02T15:14:23.666Z,5444
2017-06-02T15:15:34.051Z,4244
2017-06-02T15:16:44.428Z,4168
2017-06-02T15:17:54.777Z,4172
2017-06-02T15:19:05.198Z,4164
2017-06-02T15:20:15.569Z,4140
2017-06-02T15:21:25.943Z,5452
2017-06-02T15:22:36.300Z,5720
2017-06-02T15:23:45.742Z,5764
2017-06-02T15:24:56.195Z,5800
2017-06-02T15:26:06.606Z,5804
2017-06-02T15:27:17.009Z,5804
2017-06-02T15:28:27.116Z,5776
2017-06-02T15:29:37.537Z,5752
2017-06-02T15:30:47.984Z,5732
2017-06-02T15:31:58.402Z,5712
2017-06-02T15:33:08.819Z,5668
2017-06-02T15:34:19.233Z,5652
2017-06-02T15:35:29.629Z,5628
2017-06-02T15:36:40.113Z,5616
2017-06-02T15:37:50.516Z,5616
2017-06-02T15:39:00.920Z,5600
2017-06-02T15:40:11.344Z,5564
2017-06-02T15:41:21.746Z,5552
2017-06-02T15:42:32.221Z,5548
2017-06-02T15:43:42.643Z,5528
2017-06-02T15:44:52.734Z,5512
2017-06-02T15:46:03.158Z,5484
2017-06-02T15:47:13.226Z,5456
2017-06-02T15:48:23.649Z,5452
2017-06-02T15:49:34.099Z,5420
2017-06-02T15:50:44.185Z,5400
2017-06-02T15:51:54.586Z,5388
2017-06-02T15:53:04.960Z,5348
2017-06-02T15:54:15.401Z,5308
2017-06-02T15:55:25.473Z,5268
2017-06-02T15:56:35.516Z,5228
2017-06-02T15:57:45.917Z,5208
2017-06-02T15:58:56.005Z,5184
2017-06-02T16:00:06.468Z,5168
2017-06-02T16:01:16.890Z,5140
2017-06-02T16:02:27.300Z,5116
2017-06-02T16:03:37.710Z,5092
2017-06-02T16:04:48.102Z,5056
2017-06-02T16:05:58.551Z,5036
2017-06-02T16:07:09.047Z,4996
2017-06-02T16:08:19.520Z,4944
2017-06-02T16:09:29.944Z,4896
2017-06-02T16:10:40.362Z,4836
2017-06-02T16:11:51.110Z,4784
2017-06-02T16:13:01.501Z,4708
2017-06-02T16:14:11.570Z,4684
2017-06-02T16:15:21.950Z,4660
2017-06-02T16:16:31.688Z,4640
2017-06-02T16:17:42.138Z,4556
2017-06-02T16:18:52.575Z,4512